sensor_id;sensor_type;location;lat;lon;timestamp;P1;durP1;ratioP1;P2;durP2;ratioP2
69323;SDS011;56470;47.350;8.718;2023-01-26T00:00:02;6.37;;;3.17;;
69323;SDS011;56470;47.350;8.718;2023-01-26T00:02:28;11.90;;;4.15;;
69323;SDS011;56470;47.350;8.718;2023-01-26T00:04:54;9.43;;;4.23;;
69323;SDS011;56470;47.350;8.718;2023-01-26T00:07:19;10.83;;;4.60;;
69323;SDS011;56470;47.350;8.718;2023-01-26T00:09:44;7.78;;;3.63;;
69323;SDS011;56470;47.350;8.718;2023-01-26T00:12:10;6.13;;;3.03;;
69323;SDS011;56470;47.350;8.718;2023-01-26T00:14:35;11.27;;;4.27;;
69323;SDS011;56470;47.350;8.718;2023-01-26T00:17:13;12.65;;;5.78;;
69323;SDS011;56470;47.350;8.718;2023-01-26T00:19:40;10.73;;;4.63;;
69323;SDS011;56470;47.350;8.718;2023-01-26T00:22:05;6.93;;;3.00;;
69323;SDS011;56470;47.350;8.718;2023-01-26T00:24:30;12.37;;;4.87;;
69323;SDS011;56470;47.350;8.718;2023-01-26T00:26:55;12.20;;;4.60;;
69323;SDS011;56470;47.350;8.718;2023-01-26T00:29:21;9.77;;;4.27;;
69323;SDS011;56470;47.350;8.718;2023-01-26T00:31:46;8.60;;;4.27;;
69323;SDS011;56470;47.350;8.718;2023-01-26T00:34:12;15.38;;;5.40;;
69323;SDS011;56470;47.350;8.718;2023-01-26T00:36:37;13.47;;;4.40;;
69323;SDS011;56470;47.350;8.718;2023-01-26T00:39:02;11.23;;;5.07;;
69323;SDS011;56470;47.350;8.718;2023-01-26T00:41:28;14.80;;;5.03;;
69323;SDS011;56470;47.350;8.718;2023-01-26T00:44:12;10.63;;;4.82;;
69323;SDS011;56470;47.350;8.718;2023-01-26T00:46:37;12.03;;;4.37;;
69323;SDS011;56470;47.350;8.718;2023-01-26T00:49:02;9.77;;;4.60;;
69323;SDS011;56470;47.350;8.718;2023-01-26T00:51:28;5.43;;;2.90;;
69323;SDS011;56470;47.350;8.718;2023-01-26T00:53:53;11.47;;;4.27;;
69323;SDS011;56470;47.350;8.718;2023-01-26T00:56:19;13.33;;;4.83;;
69323;SDS011;56470;47.350;8.718;2023-01-26T00:58:44;9.23;;;4.70;;
69323;SDS011;56470;47.350;8.718;2023-01-26T01:01:10;9.18;;;3.53;;
69323;SDS011;56470;47.350;8.718;2023-01-26T01:03:35;9.00;;;4.00;;
69323;SDS011;56470;47.350;8.718;2023-01-26T01:06:01;13.93;;;5.60;;
69323;SDS011;56470;47.350;8.718;2023-01-26T01:08:26;9.07;;;4.47;;
69323;SDS011;56470;47.350;8.718;2023-01-26T01:11:01;12.70;;;4.83;;
69323;SDS011;56470;47.350;8.718;2023-01-26T01:13:27;9.57;;;3.95;;
69323;SDS011;56470;47.350;8.718;2023-01-26T01:15:52;11.87;;;4.50;;
69323;SDS011;56470;47.350;8.718;2023-01-26T01:18:18;12.37;;;4.60;;
69323;SDS011;56470;47.350;8.718;2023-01-26T01:20:43;15.52;;;5.28;;
69323;SDS011;56470;47.350;8.718;2023-01-26T01:23:08;11.90;;;4.93;;
69323;SDS011;56470;47.350;8.718;2023-01-26T01:25:34;13.53;;;5.17;;
69323;SDS011;56470;47.350;8.718;2023-01-26T01:27:59;9.53;;;4.37;;
69323;SDS011;56470;47.350;8.718;2023-01-26T01:30:25;9.18;;;4.32;;
69323;SDS011;56470;47.350;8.718;2023-01-26T01:32:50;10.53;;;4.67;;
69323;SDS011;56470;47.350;8.718;2023-01-26T01:35:16;8.60;;;4.73;;
69323;SDS011;56470;47.350;8.718;2023-01-26T01:37:41;10.63;;;5.47;;
69323;SDS011;56470;47.350;8.718;2023-01-26T01:40:09;11.18;;;4.65;;
69323;SDS011;56470;47.350;8.718;2023-01-26T01:42:36;13.88;;;5.35;;
69323;SDS011;56470;47.350;8.718;2023-01-26T01:47:58;10.90;;;4.43;;
69323;SDS011;56470;47.350;8.718;2023-01-26T01:50:26;7.47;;;3.77;;
69323;SDS011;56470;47.350;8.718;2023-01-26T01:52:52;11.70;;;5.20;;
69323;SDS011;56470;47.350;8.718;2023-01-26T01:55:20;9.68;;;4.35;;
69323;SDS011;56470;47.350;8.718;2023-01-26T01:57:50;10.70;;;4.80;;
69323;SDS011;56470;47.350;8.718;2023-01-26T02:00:20;9.82;;;4.65;;
69323;SDS011;56470;47.350;8.718;2023-01-26T02:03:08;13.82;;;5.97;;
69323;SDS011;56470;47.350;8.718;2023-01-26T02:08:32;8.43;;;4.15;;
69323;SDS011;56470;47.350;8.718;2023-01-26T02:11:02;9.60;;;3.83;;
69323;SDS011;56470;47.350;8.718;2023-01-26T02:13:32;10.90;;;4.20;;
69323;SDS011;56470;47.350;8.718;2023-01-26T02:15:58;8.27;;;3.50;;
69323;SDS011;56470;47.350;8.718;2023-01-26T02:18:24;14.37;;;5.07;;
69323;SDS011;56470;47.350;8.718;2023-01-26T02:20:54;12.02;;;5.05;;
69323;SDS011;56470;47.350;8.718;2023-01-26T02:23:30;12.23;;;4.78;;
69323;SDS011;56470;47.350;8.718;2023-01-26T02:26:04;12.63;;;6.17;;
69323;SDS011;56470;47.350;8.718;2023-01-26T02:28:37;11.10;;;3.72;;
69323;SDS011;56470;47.350;8.718;2023-01-26T02:31:04;10.10;;;3.92;;
69323;SDS011;56470;47.350;8.718;2023-01-26T02:33:31;7.50;;;4.40;;
69323;SDS011;56470;47.350;8.718;2023-01-26T02:35:57;9.60;;;4.27;;
69323;SDS011;56470;47.350;8.718;2023-01-26T02:38:24;7.68;;;3.67;;
69323;SDS011;56470;47.350;8.718;2023-01-26T02:40:53;9.25;;;4.32;;
69323;SDS011;56470;47.350;8.718;2023-01-26T02:43:22;11.88;;;3.17;;
69323;SDS011;56470;47.350;8.718;2023-01-26T02:45:49;9.50;;;3.35;;
69323;SDS011;56470;47.350;8.718;2023-01-26T02:48:15;11.43;;;4.73;;
69323;SDS011;56470;47.350;8.718;2023-01-26T02:51:00;8.63;;;4.00;;
69323;SDS011;56470;47.350;8.718;2023-01-26T02:53:25;3.67;;;2.77;;
69323;SDS011;56470;47.350;8.718;2023-01-26T02:55:51;7.13;;;2.77;;
69323;SDS011;56470;47.350;8.718;2023-01-26T02:58:16;11.93;;;4.23;;
69323;SDS011;56470;47.350;8.718;2023-01-26T03:00:41;10.83;;;4.73;;
69323;SDS011;56470;47.350;8.718;2023-01-26T03:03:10;9.17;;;3.73;;
69323;SDS011;56470;47.350;8.718;2023-01-26T03:05:40;13.80;;;5.32;;
69323;SDS011;56470;47.350;8.718;2023-01-26T03:08:06;10.43;;;4.23;;
69323;SDS011;56470;47.350;8.718;2023-01-26T03:10:32;11.20;;;4.40;;
69323;SDS011;56470;47.350;8.718;2023-01-26T03:12:58;12.47;;;4.83;;
69323;SDS011;56470;47.350;8.718;2023-01-26T03:15:23;14.95;;;5.85;;
69323;SDS011;56470;47.350;8.718;2023-01-26T03:18:11;9.90;;;4.60;;
69323;SDS011;56470;47.350;8.718;2023-01-26T03:20:57;12.10;;;4.97;;
69323;SDS011;56470;47.350;8.718;2023-01-26T03:23:57;10.43;;;3.80;;
69323;SDS011;56470;47.350;8.718;2023-01-26T03:26:41;9.05;;;3.88;;
69323;SDS011;56470;47.350;8.718;2023-01-26T03:29:26;10.88;;;5.25;;
69323;SDS011;56470;47.350;8.718;2023-01-26T03:31:52;11.20;;;5.18;;
69323;SDS011;56470;47.350;8.718;2023-01-26T03:34:18;12.90;;;5.25;;
69323;SDS011;56470;47.350;8.718;2023-01-26T03:36:44;10.40;;;5.13;;
69323;SDS011;56470;47.350;8.718;2023-01-26T03:39:10;13.38;;;4.70;;
69323;SDS011;56470;47.350;8.718;2023-01-26T03:41:55;10.07;;;4.68;;
69323;SDS011;56470;47.350;8.718;2023-01-26T03:44:39;12.70;;;5.35;;
69323;SDS011;56470;47.350;8.718;2023-01-26T03:47:23;9.13;;;4.63;;
69323;SDS011;56470;47.350;8.718;2023-01-26T03:50:08;11.17;;;3.63;;
69323;SDS011;56470;47.350;8.718;2023-01-26T03:52:52;11.43;;;4.45;;
69323;SDS011;56470;47.350;8.718;2023-01-26T03:55:36;12.27;;;5.53;;
69323;SDS011;56470;47.350;8.718;2023-01-26T03:58:20;11.10;;;4.88;;
69323;SDS011;56470;47.350;8.718;2023-01-26T04:00:46;10.97;;;5.47;;
69323;SDS011;56470;47.350;8.718;2023-01-26T04:03:13;9.75;;;4.45;;
69323;SDS011;56470;47.350;8.718;2023-01-26T04:06:00;11.57;;;5.43;;
69323;SDS011;56470;47.350;8.718;2023-01-26T04:08:45;13.97;;;4.80;;
69323;SDS011;56470;47.350;8.718;2023-01-26T04:11:11;11.52;;;4.82;;
69323;SDS011;56470;47.350;8.718;2023-01-26T04:13:37;11.77;;;4.95;;
69323;SDS011;56470;47.350;8.718;2023-01-26T04:16:21;14.82;;;5.70;;
69323;SDS011;56470;47.350;8.718;2023-01-26T04:19:05;10.93;;;4.85;;
69323;SDS011;56470;47.350;8.718;2023-01-26T04:21:49;13.60;;;5.23;;
69323;SDS011;56470;47.350;8.718;2023-01-26T04:24:14;11.50;;;5.33;;
69323;SDS011;56470;47.350;8.718;2023-01-26T04:26:40;10.68;;;3.95;;
69323;SDS011;56470;47.350;8.718;2023-01-26T04:29:08;9.30;;;4.47;;
69323;SDS011;56470;47.350;8.718;2023-01-26T04:31:35;14.95;;;5.45;;
69323;SDS011;56470;47.350;8.718;2023-01-26T04:34:01;12.05;;;5.40;;
69323;SDS011;56470;47.350;8.718;2023-01-26T04:36:28;10.98;;;4.50;;
69323;SDS011;56470;47.350;8.718;2023-01-26T04:38:54;14.07;;;5.33;;
69323;SDS011;56470;47.350;8.718;2023-01-26T04:41:19;14.15;;;5.18;;
69323;SDS011;56470;47.350;8.718;2023-01-26T04:43:45;10.97;;;4.40;;
69323;SDS011;56470;47.350;8.718;2023-01-26T04:46:11;10.13;;;4.72;;
69323;SDS011;56470;47.350;8.718;2023-01-26T04:48:36;14.13;;;6.00;;
69323;SDS011;56470;47.350;8.718;2023-01-26T04:51:03;12.37;;;4.70;;
69323;SDS011;56470;47.350;8.718;2023-01-26T04:53:31;10.18;;;4.95;;
69323;SDS011;56470;47.350;8.718;2023-01-26T04:55:57;10.30;;;4.38;;
69323;SDS011;56470;47.350;8.718;2023-01-26T04:58:23;10.48;;;4.55;;
69323;SDS011;56470;47.350;8.718;2023-01-26T05:00:53;13.70;;;4.67;;
69323;SDS011;56470;47.350;8.718;2023-01-26T05:03:20;10.10;;;5.57;;
69323;SDS011;56470;47.350;8.718;2023-01-26T05:05:50;12.95;;;6.10;;
69323;SDS011;56470;47.350;8.718;2023-01-26T05:08:17;13.88;;;4.75;;
69323;SDS011;56470;47.350;8.718;2023-01-26T05:10:44;11.65;;;5.22;;
69323;SDS011;56470;47.350;8.718;2023-01-26T05:13:10;12.30;;;5.13;;
69323;SDS011;56470;47.350;8.718;2023-01-26T05:15:36;15.40;;;5.93;;
69323;SDS011;56470;47.350;8.718;2023-01-26T05:18:02;12.90;;;5.78;;
69323;SDS011;56470;47.350;8.718;2023-01-26T05:20:28;12.85;;;5.57;;
69323;SDS011;56470;47.350;8.718;2023-01-26T05:22:53;13.83;;;5.67;;
69323;SDS011;56470;47.350;8.718;2023-01-26T05:25:19;12.43;;;4.97;;
69323;SDS011;56470;47.350;8.718;2023-01-26T05:27:44;13.30;;;6.03;;
69323;SDS011;56470;47.350;8.718;2023-01-26T05:30:10;10.80;;;5.10;;
69323;SDS011;56470;47.350;8.718;2023-01-26T05:32:36;14.75;;;6.10;;
69323;SDS011;56470;47.350;8.718;2023-01-26T05:35:02;8.27;;;4.23;;
69323;SDS011;56470;47.350;8.718;2023-01-26T05:37:28;10.32;;;4.82;;
69323;SDS011;56470;47.350;8.718;2023-01-26T05:39:54;13.77;;;5.40;;
69323;SDS011;56470;47.350;8.718;2023-01-26T05:42:19;14.50;;;5.97;;
69323;SDS011;56470;47.350;8.718;2023-01-26T05:44:45;12.15;;;5.35;;
69323;SDS011;56470;47.350;8.718;2023-01-26T05:47:11;12.17;;;4.33;;
69323;SDS011;56470;47.350;8.718;2023-01-26T05:49:36;15.48;;;5.68;;
69323;SDS011;56470;47.350;8.718;2023-01-26T05:52:19;8.83;;;4.90;;
69323;SDS011;56470;47.350;8.718;2023-01-26T05:54:45;9.75;;;4.88;;
69323;SDS011;56470;47.350;8.718;2023-01-26T05:57:11;11.55;;;5.05;;
69323;SDS011;56470;47.350;8.718;2023-01-26T05:59:37;15.60;;;5.67;;
69323;SDS011;56470;47.350;8.718;2023-01-26T06:02:03;14.82;;;7.07;;
69323;SDS011;56470;47.350;8.718;2023-01-26T06:04:28;9.93;;;5.17;;
69323;SDS011;56470;47.350;8.718;2023-01-26T06:06:54;15.77;;;5.30;;
69323;SDS011;56470;47.350;8.718;2023-01-26T06:09:21;16.73;;;6.50;;
69323;SDS011;56470;47.350;8.718;2023-01-26T06:11:46;11.07;;;5.45;;
69323;SDS011;56470;47.350;8.718;2023-01-26T06:14:12;11.70;;;5.73;;
69323;SDS011;56470;47.350;8.718;2023-01-26T06:16:38;12.47;;;4.73;;
69323;SDS011;56470;47.350;8.718;2023-01-26T06:19:03;15.03;;;5.60;;
69323;SDS011;56470;47.350;8.718;2023-01-26T06:21:29;17.03;;;7.77;;
69323;SDS011;56470;47.350;8.718;2023-01-26T06:23:55;12.77;;;5.30;;
69323;SDS011;56470;47.350;8.718;2023-01-26T06:26:20;12.50;;;5.20;;
69323;SDS011;56470;47.350;8.718;2023-01-26T06:28:48;15.23;;;6.22;;
69323;SDS011;56470;47.350;8.718;2023-01-26T06:31:17;11.63;;;5.30;;
69323;SDS011;56470;47.350;8.718;2023-01-26T06:33:43;12.40;;;5.53;;
69323;SDS011;56470;47.350;8.718;2023-01-26T06:36:10;12.50;;;5.00;;
69323;SDS011;56470;47.350;8.718;2023-01-26T06:38:43;13.20;;;5.60;;
69323;SDS011;56470;47.350;8.718;2023-01-26T06:41:09;14.80;;;4.53;;
69323;SDS011;56470;47.350;8.718;2023-01-26T06:43:34;12.20;;;4.83;;
69323;SDS011;56470;47.350;8.718;2023-01-26T06:46:00;10.03;;;5.27;;
69323;SDS011;56470;47.350;8.718;2023-01-26T06:48:27;13.23;;;4.93;;
69323;SDS011;56470;47.350;8.718;2023-01-26T06:50:57;15.57;;;5.55;;
69323;SDS011;56470;47.350;8.718;2023-01-26T06:53:33;12.27;;;5.00;;
69323;SDS011;56470;47.350;8.718;2023-01-26T06:56:02;14.60;;;5.05;;
69323;SDS011;56470;47.350;8.718;2023-01-26T06:58:27;15.00;;;6.20;;
69323;SDS011;56470;47.350;8.718;2023-01-26T07:00:53;13.23;;;5.53;;
69323;SDS011;56470;47.350;8.718;2023-01-26T07:03:19;15.82;;;5.95;;
69323;SDS011;56470;47.350;8.718;2023-01-26T07:05:45;13.25;;;5.47;;
69323;SDS011;56470;47.350;8.718;2023-01-26T07:08:10;8.50;;;4.33;;
69323;SDS011;56470;47.350;8.718;2023-01-26T07:10:36;10.33;;;4.90;;
69323;SDS011;56470;47.350;8.718;2023-01-26T07:13:03;12.85;;;5.50;;
69323;SDS011;56470;47.350;8.718;2023-01-26T07:15:29;12.05;;;6.32;;
69323;SDS011;56470;47.350;8.718;2023-01-26T07:17:57;13.20;;;5.70;;
69323;SDS011;56470;47.350;8.718;2023-01-26T07:20:24;12.90;;;5.90;;
69323;SDS011;56470;47.350;8.718;2023-01-26T07:22:50;14.10;;;5.70;;
69323;SDS011;56470;47.350;8.718;2023-01-26T07:25:16;13.15;;;4.38;;
69323;SDS011;56470;47.350;8.718;2023-01-26T07:27:41;15.60;;;6.13;;
69323;SDS011;56470;47.350;8.718;2023-01-26T07:30:07;18.63;;;6.40;;
69323;SDS011;56470;47.350;8.718;2023-01-26T07:32:34;12.32;;;5.43;;
69323;SDS011;56470;47.350;8.718;2023-01-26T07:34:59;13.73;;;6.27;;
69323;SDS011;56470;47.350;8.718;2023-01-26T07:37:28;12.75;;;5.85;;
69323;SDS011;56470;47.350;8.718;2023-01-26T07:39:54;12.73;;;5.80;;
69323;SDS011;56470;47.350;8.718;2023-01-26T07:42:20;10.90;;;4.77;;
69323;SDS011;56470;47.350;8.718;2023-01-26T07:44:45;12.23;;;5.10;;
69323;SDS011;56470;47.350;8.718;2023-01-26T07:47:13;12.43;;;5.40;;
69323;SDS011;56470;47.350;8.718;2023-01-26T07:49:39;14.97;;;4.83;;
69323;SDS011;56470;47.350;8.718;2023-01-26T07:52:05;10.07;;;4.47;;
69323;SDS011;56470;47.350;8.718;2023-01-26T07:54:30;11.77;;;5.40;;
69323;SDS011;56470;47.350;8.718;2023-01-26T07:56:56;12.40;;;5.20;;
69323;SDS011;56470;47.350;8.718;2023-01-26T07:59:21;12.65;;;5.95;;
69323;SDS011;56470;47.350;8.718;2023-01-26T08:01:48;11.13;;;4.50;;
69323;SDS011;56470;47.350;8.718;2023-01-26T08:04:14;9.77;;;5.35;;
69323;SDS011;56470;47.350;8.718;2023-01-26T08:06:40;13.57;;;6.13;;
69323;SDS011;56470;47.350;8.718;2023-01-26T08:09:05;10.07;;;3.73;;
69323;SDS011;56470;47.350;8.718;2023-01-26T08:11:30;12.33;;;5.13;;
69323;SDS011;56470;47.350;8.718;2023-01-26T08:13:56;11.40;;;5.03;;
69323;SDS011;56470;47.350;8.718;2023-01-26T08:16:21;12.15;;;5.03;;
69323;SDS011;56470;47.350;8.718;2023-01-26T08:18:47;11.97;;;5.87;;
69323;SDS011;56470;47.350;8.718;2023-01-26T08:21:13;11.20;;;5.03;;
69323;SDS011;56470;47.350;8.718;2023-01-26T08:23:40;9.82;;;3.92;;
69323;SDS011;56470;47.350;8.718;2023-01-26T08:26:11;10.50;;;4.83;;
69323;SDS011;56470;47.350;8.718;2023-01-26T08:28:37;14.73;;;6.22;;
69323;SDS011;56470;47.350;8.718;2023-01-26T08:31:10;10.32;;;5.03;;
69323;SDS011;56470;47.350;8.718;2023-01-26T08:33:41;14.10;;;4.80;;
69323;SDS011;56470;47.350;8.718;2023-01-26T08:36:07;10.50;;;4.70;;
69323;SDS011;56470;47.350;8.718;2023-01-26T08:38:36;7.80;;;4.45;;
69323;SDS011;56470;47.350;8.718;2023-01-26T08:41:01;9.53;;;4.63;;
69323;SDS011;56470;47.350;8.718;2023-01-26T08:43:28;9.45;;;3.75;;
69323;SDS011;56470;47.350;8.718;2023-01-26T08:45:53;13.48;;;5.30;;
69323;SDS011;56470;47.350;8.718;2023-01-26T08:48:19;11.53;;;5.03;;
69323;SDS011;56470;47.350;8.718;2023-01-26T08:50:45;10.27;;;4.20;;
69323;SDS011;56470;47.350;8.718;2023-01-26T08:53:11;8.13;;;3.65;;
69323;SDS011;56470;47.350;8.718;2023-01-26T08:55:36;8.48;;;4.00;;
69323;SDS011;56470;47.350;8.718;2023-01-26T08:58:02;8.90;;;4.03;;
69323;SDS011;56470;47.350;8.718;2023-01-26T09:00:28;5.50;;;2.55;;
69323;SDS011;56470;47.350;8.718;2023-01-26T09:02:57;8.10;;;4.10;;
69323;SDS011;56470;47.350;8.718;2023-01-26T09:05:27;10.55;;;2.90;;
69323;SDS011;56470;47.350;8.718;2023-01-26T09:07:55;8.70;;;4.13;;
69323;SDS011;56470;47.350;8.718;2023-01-26T09:10:20;5.70;;;2.67;;
69323;SDS011;56470;47.350;8.718;2023-01-26T09:12:46;9.17;;;3.33;;
69323;SDS011;56470;47.350;8.718;2023-01-26T09:15:11;9.20;;;2.73;;
69323;SDS011;56470;47.350;8.718;2023-01-26T09:17:36;10.43;;;4.27;;
69323;SDS011;56470;47.350;8.718;2023-01-26T09:20:03;10.70;;;4.47;;
69323;SDS011;56470;47.350;8.718;2023-01-26T09:22:29;6.35;;;3.08;;
69323;SDS011;56470;47.350;8.718;2023-01-26T09:24:55;8.83;;;4.53;;
69323;SDS011;56470;47.350;8.718;2023-01-26T09:27:21;10.33;;;4.03;;
69323;SDS011;56470;47.350;8.718;2023-01-26T09:29:46;2.53;;;1.75;;
69323;SDS011;56470;47.350;8.718;2023-01-26T09:32:12;8.87;;;3.90;;
69323;SDS011;56470;47.350;8.718;2023-01-26T09:34:37;11.05;;;4.70;;
69323;SDS011;56470;47.350;8.718;2023-01-26T09:37:04;6.83;;;3.47;;
69323;SDS011;56470;47.350;8.718;2023-01-26T09:39:31;7.40;;;3.13;;
69323;SDS011;56470;47.350;8.718;2023-01-26T09:44:32;7.97;;;3.57;;
69323;SDS011;56470;47.350;8.718;2023-01-26T09:47:16;4.82;;;1.95;;
69323;SDS011;56470;47.350;8.718;2023-01-26T09:49:50;9.10;;;4.50;;
69323;SDS011;56470;47.350;8.718;2023-01-26T09:54:52;8.30;;;4.43;;
69323;SDS011;56470;47.350;8.718;2023-01-26T09:57:26;10.43;;;3.80;;
69323;SDS011;56470;47.350;8.718;2023-01-26T10:00:06;9.25;;;3.70;;
69323;SDS011;56470;47.350;8.718;2023-01-26T10:02:50;6.22;;;3.15;;
69323;SDS011;56470;47.350;8.718;2023-01-26T10:08:11;11.25;;;4.47;;
69323;SDS011;56470;47.350;8.718;2023-01-26T10:10:47;9.60;;;4.40;;
69323;SDS011;56470;47.350;8.718;2023-01-26T10:13:26;7.38;;;3.80;;
69323;SDS011;56470;47.350;8.718;2023-01-26T10:15:55;8.10;;;3.85;;
69323;SDS011;56470;47.350;8.718;2023-01-26T10:18:25;8.48;;;4.03;;
69323;SDS011;56470;47.350;8.718;2023-01-26T10:20:57;13.77;;;6.30;;
69323;SDS011;56470;47.350;8.718;2023-01-26T10:23:29;11.10;;;4.10;;
69323;SDS011;56470;47.350;8.718;2023-01-26T10:26:19;11.77;;;4.10;;
69323;SDS011;56470;47.350;8.718;2023-01-26T10:28:44;10.43;;;4.18;;
69323;SDS011;56470;47.350;8.718;2023-01-26T10:31:15;10.73;;;4.78;;
69323;SDS011;56470;47.350;8.718;2023-01-26T10:34:08;13.23;;;5.30;;
69323;SDS011;56470;47.350;8.718;2023-01-26T10:36:38;8.80;;;3.83;;
69323;SDS011;56470;47.350;8.718;2023-01-26T10:39:08;9.90;;;4.38;;
69323;SDS011;56470;47.350;8.718;2023-01-26T10:41:36;15.10;;;5.40;;
69323;SDS011;56470;47.350;8.718;2023-01-26T10:47:03;11.82;;;5.20;;
69323;SDS011;56470;47.350;8.718;2023-01-26T10:49:31;12.70;;;4.72;;
69323;SDS011;56470;47.350;8.718;2023-01-26T10:54:50;12.50;;;4.57;;
69323;SDS011;56470;47.350;8.718;2023-01-26T10:57:36;9.00;;;4.28;;
69323;SDS011;56470;47.350;8.718;2023-01-26T11:00:04;12.98;;;5.07;;
69323;SDS011;56470;47.350;8.718;2023-01-26T11:02:34;14.73;;;5.18;;
69323;SDS011;56470;47.350;8.718;2023-01-26T11:07:35;11.32;;;4.15;;
69323;SDS011;56470;47.350;8.718;2023-01-26T11:12:47;17.05;;;6.07;;
69323;SDS011;56470;47.350;8.718;2023-01-26T11:15:17;13.63;;;5.82;;
69323;SDS011;56470;47.350;8.718;2023-01-26T11:18:02;18.03;;;7.07;;
69323;SDS011;56470;47.350;8.718;2023-01-26T11:28:44;12.93;;;5.70;;
69323;SDS011;56470;47.350;8.718;2023-01-26T11:34:19;10.43;;;4.65;;
69323;SDS011;56470;47.350;8.718;2023-01-26T11:37:44;7.57;;;3.22;;
69323;SDS011;56470;47.350;8.718;2023-01-26T11:40:13;11.35;;;4.40;;
69323;SDS011;56470;47.350;8.718;2023-01-26T11:42:57;7.50;;;3.83;;
69323;SDS011;56470;47.350;8.718;2023-01-26T11:48:43;7.53;;;4.05;;
69323;SDS011;56470;47.350;8.718;2023-01-26T11:59:24;9.87;;;4.90;;
69323;SDS011;56470;47.350;8.718;2023-01-26T12:04:20;13.07;;;5.03;;
69323;SDS011;56470;47.350;8.718;2023-01-26T12:06:49;12.15;;;5.10;;
69323;SDS011;56470;47.350;8.718;2023-01-26T12:09:52;9.45;;;3.97;;
69323;SDS011;56470;47.350;8.718;2023-01-26T12:15:03;10.23;;;3.95;;
69323;SDS011;56470;47.350;8.718;2023-01-26T12:20:11;8.30;;;4.10;;
69323;SDS011;56470;47.350;8.718;2023-01-26T12:22:42;10.57;;;4.53;;
69323;SDS011;56470;47.350;8.718;2023-01-26T12:25:17;8.32;;;3.78;;
69323;SDS011;56470;47.350;8.718;2023-01-26T12:31:02;8.13;;;2.73;;
69323;SDS011;56470;47.350;8.718;2023-01-26T12:33:36;9.60;;;3.67;;
69323;SDS011;56470;47.350;8.718;2023-01-26T12:41:10;10.40;;;3.75;;
69323;SDS011;56470;47.350;8.718;2023-01-26T12:46:11;8.02;;;2.90;;
69323;SDS011;56470;47.350;8.718;2023-01-26T12:48:43;8.63;;;4.03;;
69323;SDS011;56470;47.350;8.718;2023-01-26T12:51:16;10.07;;;4.60;;
69323;SDS011;56470;47.350;8.718;2023-01-26T12:54:06;9.00;;;3.05;;
69323;SDS011;56470;47.350;8.718;2023-01-26T12:56:41;7.57;;;2.97;;
69323;SDS011;56470;47.350;8.718;2023-01-26T12:59:31;8.77;;;2.88;;
69323;SDS011;56470;47.350;8.718;2023-01-26T13:02:00;7.65;;;3.00;;
69323;SDS011;56470;47.350;8.718;2023-01-26T13:04:47;8.17;;;3.20;;
69323;SDS011;56470;47.350;8.718;2023-01-26T13:07:27;7.55;;;2.80;;
69323;SDS011;56470;47.350;8.718;2023-01-26T13:15:15;9.95;;;3.55;;
69323;SDS011;56470;47.350;8.718;2023-01-26T13:17:49;9.27;;;3.60;;
69323;SDS011;56470;47.350;8.718;2023-01-26T13:20:24;9.32;;;3.15;;
69323;SDS011;56470;47.350;8.718;2023-01-26T13:22:50;8.50;;;3.15;;
69323;SDS011;56470;47.350;8.718;2023-01-26T13:25:18;8.50;;;3.63;;
69323;SDS011;56470;47.350;8.718;2023-01-26T13:28:11;4.90;;;2.97;;
69323;SDS011;56470;47.350;8.718;2023-01-26T13:30:41;9.00;;;3.27;;
69323;SDS011;56470;47.350;8.718;2023-01-26T13:35:37;10.93;;;4.03;;
69323;SDS011;56470;47.350;8.718;2023-01-26T13:41:20;6.20;;;3.20;;
69323;SDS011;56470;47.350;8.718;2023-01-26T13:43:53;7.17;;;3.27;;
69323;SDS011;56470;47.350;8.718;2023-01-26T13:46:25;8.30;;;3.28;;
69323;SDS011;56470;47.350;8.718;2023-01-26T13:48:54;11.95;;;4.28;;
69323;SDS011;56470;47.350;8.718;2023-01-26T13:53:59;10.55;;;3.80;;
69323;SDS011;56470;47.350;8.718;2023-01-26T13:56:30;12.60;;;4.00;;
69323;SDS011;56470;47.350;8.718;2023-01-26T13:59:13;7.85;;;3.78;;
69323;SDS011;56470;47.350;8.718;2023-01-26T14:01:44;7.00;;;3.08;;
69323;SDS011;56470;47.350;8.718;2023-01-26T14:04:13;7.85;;;3.05;;
69323;SDS011;56470;47.350;8.718;2023-01-26T14:06:41;9.23;;;3.25;;
69323;SDS011;56470;47.350;8.718;2023-01-26T14:09:11;5.13;;;2.97;;
69323;SDS011;56470;47.350;8.718;2023-01-26T14:11:39;5.47;;;3.40;;
69323;SDS011;56470;47.350;8.718;2023-01-26T14:14:04;5.43;;;3.10;;
69323;SDS011;56470;47.350;8.718;2023-01-26T14:16:31;11.27;;;3.58;;
69323;SDS011;56470;47.350;8.718;2023-01-26T14:19:04;8.73;;;3.47;;
69323;SDS011;56470;47.350;8.718;2023-01-26T14:24:14;6.03;;;2.80;;
69323;SDS011;56470;47.350;8.718;2023-01-26T14:26:40;8.05;;;2.92;;
69323;SDS011;56470;47.350;8.718;2023-01-26T14:29:10;5.60;;;2.20;;
69323;SDS011;56470;47.350;8.718;2023-01-26T14:31:37;9.50;;;4.43;;
69323;SDS011;56470;47.350;8.718;2023-01-26T14:34:07;9.77;;;3.67;;
69323;SDS011;56470;47.350;8.718;2023-01-26T14:36:34;8.17;;;3.90;;
69323;SDS011;56470;47.350;8.718;2023-01-26T14:39:03;7.15;;;3.08;;
69323;SDS011;56470;47.350;8.718;2023-01-26T14:41:40;6.95;;;3.13;;
69323;SDS011;56470;47.350;8.718;2023-01-26T14:44:07;9.95;;;3.90;;
69323;SDS011;56470;47.350;8.718;2023-01-26T14:46:45;9.43;;;3.25;;
69323;SDS011;56470;47.350;8.718;2023-01-26T14:49:21;9.27;;;3.20;;
69323;SDS011;56470;47.350;8.718;2023-01-26T14:51:55;6.00;;;2.80;;
69323;SDS011;56470;47.350;8.718;2023-01-26T14:54:31;6.97;;;3.33;;
69323;SDS011;56470;47.350;8.718;2023-01-26T14:57:03;7.68;;;2.47;;
69323;SDS011;56470;47.350;8.718;2023-01-26T14:59:33;7.60;;;3.60;;
69323;SDS011;56470;47.350;8.718;2023-01-26T15:02:18;7.50;;;3.40;;
69323;SDS011;56470;47.350;8.718;2023-01-26T15:04:49;7.97;;;2.92;;
69323;SDS011;56470;47.350;8.718;2023-01-26T15:07:37;10.30;;;3.97;;
69323;SDS011;56470;47.350;8.718;2023-01-26T15:15:39;7.60;;;3.50;;
69323;SDS011;56470;47.350;8.718;2023-01-26T15:20:50;7.35;;;3.22;;
69323;SDS011;56470;47.350;8.718;2023-01-26T15:23:27;4.80;;;2.78;;
69323;SDS011;56470;47.350;8.718;2023-01-26T15:25:54;5.93;;;2.97;;
69323;SDS011;56470;47.350;8.718;2023-01-26T15:28:27;5.83;;;3.03;;
69323;SDS011;56470;47.350;8.718;2023-01-26T15:30:53;7.50;;;3.58;;
69323;SDS011;56470;47.350;8.718;2023-01-26T15:33:36;8.83;;;3.53;;
69323;SDS011;56470;47.350;8.718;2023-01-26T15:36:32;11.75;;;3.67;;
69323;SDS011;56470;47.350;8.718;2023-01-26T15:38:59;11.57;;;3.58;;
69323;SDS011;56470;47.350;8.718;2023-01-26T15:41:38;8.50;;;2.42;;
69323;SDS011;56470;47.350;8.718;2023-01-26T15:44:12;5.43;;;2.75;;
69323;SDS011;56470;47.350;8.718;2023-01-26T15:46:40;8.93;;;3.23;;
69323;SDS011;56470;47.350;8.718;2023-01-26T15:49:06;11.02;;;3.35;;
69323;SDS011;56470;47.350;8.718;2023-01-26T15:51:31;8.50;;;4.00;;
69323;SDS011;56470;47.350;8.718;2023-01-26T15:53:56;8.47;;;3.90;;
69323;SDS011;56470;47.350;8.718;2023-01-26T15:56:21;6.13;;;2.47;;
69323;SDS011;56470;47.350;8.718;2023-01-26T15:58:47;11.20;;;4.17;;
69323;SDS011;56470;47.350;8.718;2023-01-26T16:01:13;9.68;;;3.97;;
69323;SDS011;56470;47.350;8.718;2023-01-26T16:03:40;9.33;;;3.67;;
69323;SDS011;56470;47.350;8.718;2023-01-26T16:06:07;8.60;;;3.47;;
69323;SDS011;56470;47.350;8.718;2023-01-26T16:08:43;7.17;;;3.10;;
69323;SDS011;56470;47.350;8.718;2023-01-26T16:11:10;11.60;;;3.20;;
69323;SDS011;56470;47.350;8.718;2023-01-26T16:13:36;9.57;;;3.73;;
69323;SDS011;56470;47.350;8.718;2023-01-26T16:16:01;8.40;;;3.30;;
69323;SDS011;56470;47.350;8.718;2023-01-26T16:18:27;7.63;;;3.97;;
69323;SDS011;56470;47.350;8.718;2023-01-26T16:20:52;8.83;;;3.23;;
69323;SDS011;56470;47.350;8.718;2023-01-26T16:25:50;6.63;;;2.70;;
69323;SDS011;56470;47.350;8.718;2023-01-26T16:28:16;5.47;;;3.25;;